createdAt,value
2023-12-29T00:01:37.218Z,18.27
2023-12-29T00:04:05.009Z,19.13
2023-12-29T00:06:32.290Z,49.97
2023-12-29T00:09:01.335Z,38.33
2023-12-29T00:11:28.735Z,35.37
2023-12-29T00:13:56.249Z,34.37
2023-12-29T00:16:23.641Z,29.47
2023-12-29T00:18:51.053Z,27.50
2023-12-29T00:21:20.720Z,27.80
2023-12-29T00:23:49.357Z,29.53
2023-12-29T00:26:20.068Z,38.90
2023-12-29T00:28:54.205Z,35.87
2023-12-29T00:31:21.641Z,32.00
2023-12-29T00:33:52.923Z,27.73
2023-12-29T00:36:22.546Z,23.83
2023-12-29T00:38:50.650Z,22.13
2023-12-29T00:41:18.997Z,21.93
2023-12-29T00:43:46.292Z,21.23
2023-12-29T00:46:19.525Z,24.00
2023-12-29T00:48:48.139Z,34.93
2023-12-29T00:51:15.558Z,30.17
2023-12-29T00:53:42.858Z,21.00
2023-12-29T00:56:14.055Z,17.47
2023-12-29T00:58:41.605Z,14.87
2023-12-29T01:01:12.652Z,13.70
2023-12-29T01:03:40.371Z,13.17
2023-12-29T01:06:07.922Z,12.43
2023-12-29T01:08:35.646Z,11.27
2023-12-29T01:11:03.595Z,11.37
2023-12-29T01:13:30.920Z,12.40
2023-12-29T01:15:58.268Z,11.67
2023-12-29T01:18:25.610Z,14.33
2023-12-29T01:20:52.763Z,13.43
2023-12-29T01:23:20.296Z,13.17
2023-12-29T01:25:48.026Z,12.97
2023-12-29T01:28:15.898Z,13.13
2023-12-29T01:30:43.582Z,15.03
2023-12-29T01:33:11.269Z,14.57
2023-12-29T01:35:40.593Z,14.53
2023-12-29T01:38:11.320Z,14.67
2023-12-29T01:40:48.005Z,15.00
2023-12-29T01:43:15.549Z,14.40
2023-12-29T01:45:51.991Z,14.13
2023-12-29T01:48:25.517Z,15.53
2023-12-29T01:50:53.874Z,22.40
2023-12-29T01:53:27.461Z,21.70
2023-12-29T01:56:02.377Z,23.70
2023-12-29T01:58:30.446Z,23.23
2023-12-29T02:00:57.623Z,17.03
2023-12-29T02:03:25.189Z,13.83
2023-12-29T02:05:53.183Z,12.53
2023-12-29T02:08:20.696Z,13.67
2023-12-29T02:10:49.143Z,22.67
2023-12-29T02:13:16.851Z,22.73
2023-12-29T02:15:44.488Z,17.90
2023-12-29T02:18:17.603Z,17.17
2023-12-29T02:20:45.479Z,15.33
2023-12-29T02:23:12.633Z,16.20
2023-12-29T02:25:39.890Z,15.60
2023-12-29T02:28:26.775Z,14.80
2023-12-29T02:31:18.188Z,14.10
2023-12-29T02:33:49.183Z,14.97
2023-12-29T02:36:18.855Z,14.17
2023-12-29T02:38:46.148Z,14.70
2023-12-29T02:41:16.466Z,11.20
2023-12-29T02:43:43.810Z,13.13
2023-12-29T02:46:11.580Z,16.73
2023-12-29T02:48:39.180Z,19.13
2023-12-29T02:51:09.179Z,16.40
2023-12-29T02:53:36.501Z,18.90
2023-12-29T02:56:04.086Z,25.70
2023-12-29T02:58:31.504Z,38.97
2023-12-29T03:00:59.001Z,22.13
2023-12-29T03:03:26.507Z,25.77
2023-12-29T03:05:53.954Z,17.30
2023-12-29T03:08:21.296Z,29.93
2023-12-29T03:10:48.473Z,27.10
2023-12-29T03:13:15.873Z,29.27
2023-12-29T03:15:43.350Z,25.97
2023-12-29T03:18:11.339Z,21.73
2023-12-29T03:20:41.626Z,23.97
2023-12-29T03:23:09.072Z,23.57
2023-12-29T03:25:36.443Z,22.93
2023-12-29T03:28:04.215Z,28.40
2023-12-29T03:30:31.802Z,35.00
2023-12-29T03:32:59.760Z,57.70
2023-12-29T03:35:27.727Z,58.73
2023-12-29T03:37:55.073Z,44.37
2023-12-29T03:40:22.503Z,40.20
2023-12-29T03:42:49.916Z,32.20
2023-12-29T03:45:17.253Z,30.17
2023-12-29T03:47:44.795Z,34.90
2023-12-29T03:50:12.335Z,39.73
2023-12-29T03:52:40.291Z,37.93
2023-12-29T03:55:08.171Z,34.00
2023-12-29T03:57:35.680Z,35.57
2023-12-29T04:00:05.078Z,33.83
2023-12-29T04:02:39.773Z,26.13
2023-12-29T04:05:09.621Z,31.77
2023-12-29T04:07:40.840Z,68.07
2023-12-29T04:10:10.449Z,74.37
2023-12-29T04:12:38.963Z,53.87
2023-12-29T04:15:09.907Z,31.77
2023-12-29T04:17:37.442Z,28.00
2023-12-29T04:20:05.783Z,27.57
2023-12-29T04:22:35.181Z,25.87
2023-12-29T04:25:03.299Z,24.27
2023-12-29T04:27:30.801Z,20.97
2023-12-29T04:30:01.917Z,21.57
2023-12-29T04:32:30.602Z,21.47
2023-12-29T04:34:58.307Z,18.57
2023-12-29T04:37:26.071Z,17.70
2023-12-29T04:39:53.875Z,17.20
2023-12-29T04:42:21.619Z,16.80
2023-12-29T04:44:49.496Z,16.53
2023-12-29T04:47:19.006Z,16.43
2023-12-29T04:49:47.061Z,16.13
2023-12-29T04:52:14.929Z,17.73
2023-12-29T04:54:43.519Z,17.03
2023-12-29T04:57:11.214Z,17.30
2023-12-29T04:59:41.281Z,17.07
2023-12-29T05:02:10.272Z,18.03
2023-12-29T05:04:42.063Z,19.37
2023-12-29T05:07:11.291Z,19.23
2023-12-29T05:09:38.628Z,20.13
2023-12-29T05:12:06.419Z,18.90
2023-12-29T05:14:33.721Z,18.70
2023-12-29T05:17:01.072Z,20.13
2023-12-29T05:19:28.452Z,20.50
2023-12-29T05:21:58.851Z,21.37
2023-12-29T05:24:26.237Z,22.63
2023-12-29T05:26:53.577Z,22.17
2023-12-29T05:29:20.943Z,22.47
2023-12-29T05:31:48.410Z,24.63
2023-12-29T05:34:15.867Z,25.87
2023-12-29T05:36:43.509Z,26.33
2023-12-29T05:39:10.894Z,26.00
2023-12-29T05:41:38.324Z,25.73
2023-12-29T05:44:05.931Z,24.87
2023-12-29T05:46:33.295Z,33.93
2023-12-29T05:49:00.937Z,42.50
2023-12-29T05:51:31.177Z,39.50
2023-12-29T05:53:58.642Z,26.23
2023-12-29T05:56:26.545Z,24.03
2023-12-29T05:58:54.452Z,24.30
2023-12-29T06:01:22.138Z,33.07
2023-12-29T06:03:49.619Z,36.70
2023-12-29T06:06:16.999Z,33.67
2023-12-29T06:08:47.316Z,32.60
2023-12-29T06:11:18.429Z,32.87
2023-12-29T06:13:46.975Z,33.63
2023-12-29T06:16:21.778Z,52.53
2023-12-29T06:18:50.114Z,46.97
2023-12-29T06:21:17.995Z,51.20
2023-12-29T06:23:48.649Z,51.07
2023-12-29T06:26:18.167Z,62.27
2023-12-29T06:28:46.719Z,58.13
2023-12-29T06:31:15.075Z,64.73
2023-12-29T06:33:44.645Z,61.57
2023-12-29T06:36:14.944Z,64.13
2023-12-29T06:38:42.178Z,76.27
2023-12-29T06:41:12.384Z,82.63
2023-12-29T06:43:39.542Z,82.83
2023-12-29T06:46:07.645Z,90.10
2023-12-29T06:48:37.627Z,90.67
2023-12-29T06:51:08.394Z,88.87
2023-12-29T06:53:36.913Z,84.93
2023-12-29T06:56:08.552Z,83.17
2023-12-29T06:58:40.221Z,91.33
2023-12-29T07:01:09.385Z,104.13
2023-12-29T07:03:36.961Z,175.87
2023-12-29T07:06:04.805Z,148.83
2023-12-29T07:08:32.966Z,124.57
2023-12-29T07:11:03.871Z,89.60
2023-12-29T07:13:38.143Z,83.67
2023-12-29T07:16:06.366Z,84.37
2023-12-29T07:18:33.615Z,50.13
2023-12-29T07:21:00.998Z,45.13
2023-12-29T07:23:31.674Z,50.47
2023-12-29T07:25:58.870Z,109.97
2023-12-29T07:28:26.077Z,97.23
2023-12-29T07:30:53.486Z,89.90
2023-12-29T07:33:20.752Z,78.20
2023-12-29T07:35:48.156Z,74.90
2023-12-29T07:38:40.367Z,102.90
2023-12-29T07:41:07.902Z,96.80
2023-12-29T07:43:39.639Z,117.57
2023-12-29T07:46:06.812Z,79.37
2023-12-29T07:48:34.472Z,78.43
2023-12-29T07:51:07.089Z,62.83
2023-12-29T07:53:34.320Z,47.27
2023-12-29T07:56:01.581Z,41.43
2023-12-29T07:58:28.886Z,48.33
2023-12-29T08:00:56.140Z,61.77
2023-12-29T08:03:23.480Z,54.13
2023-12-29T08:05:50.784Z,39.80
2023-12-29T08:08:20.236Z,39.77
2023-12-29T08:10:47.439Z,36.43
2023-12-29T08:13:20.113Z,37.97
2023-12-29T08:18:19.717Z,33.33
2023-12-29T08:20:46.847Z,52.73
2023-12-29T08:23:14.041Z,35.33
2023-12-29T08:25:41.291Z,28.27
2023-12-29T08:28:08.422Z,28.30
2023-12-29T08:30:39.817Z,25.33
2023-12-29T08:33:07.288Z,76.97
2023-12-29T08:35:34.547Z,34.53
2023-12-29T08:38:05.371Z,42.87
2023-12-29T08:40:33.944Z,29.83
2023-12-29T08:43:03.970Z,32.37
2023-12-29T08:45:31.580Z,24.10
2023-12-29T08:47:59.181Z,20.93
2023-12-29T08:50:28.072Z,16.73
2023-12-29T08:52:55.382Z,15.07
2023-12-29T08:55:22.663Z,14.93
2023-12-29T08:57:50.019Z,13.80
2023-12-29T09:00:18.054Z,12.17
2023-12-29T09:02:45.649Z,10.93
2023-12-29T09:05:14.277Z,12.63
2023-12-29T09:07:42.301Z,14.20
2023-12-29T09:10:12.897Z,10.63
2023-12-29T09:12:40.610Z,15.53
2023-12-29T09:15:09.486Z,19.93
2023-12-29T09:17:37.390Z,11.87
2023-12-29T09:20:10.487Z,12.00
2023-12-29T09:22:39.137Z,8.57
2023-12-29T09:25:09.937Z,8.70
2023-12-29T09:27:37.541Z,8.70
2023-12-29T09:30:06.406Z,8.00
2023-12-29T09:32:33.836Z,7.87
2023-12-29T09:35:01.127Z,7.50
2023-12-29T09:37:32.032Z,8.17
2023-12-29T09:40:09.855Z,10.57
2023-12-29T09:42:53.909Z,7.90
2023-12-29T09:45:39.876Z,8.57
2023-12-29T09:48:13.327Z,9.40
2023-12-29T09:50:42.001Z,9.13
2023-12-29T09:53:11.685Z,7.93
2023-12-29T09:55:41.576Z,8.03
2023-12-29T09:58:10.610Z,9.00
2023-12-29T10:00:39.688Z,9.50
2023-12-29T10:03:09.544Z,9.07
2023-12-29T10:05:37.910Z,11.23
2023-12-29T10:08:09.538Z,8.83
2023-12-29T10:10:39.392Z,8.53
2023-12-29T10:13:12.112Z,8.03
2023-12-29T10:16:00.413Z,9.57
2023-12-29T10:19:07.855Z,8.17
2023-12-29T10:21:50.006Z,10.70
2023-12-29T10:24:23.519Z,18.57
2023-12-29T10:26:58.000Z,23.07
2023-12-29T10:29:30.109Z,12.30
2023-12-29T10:31:57.406Z,12.73
2023-12-29T10:34:35.245Z,9.67
2023-12-29T10:37:10.460Z,8.80
2023-12-29T10:39:38.015Z,8.57
2023-12-29T10:42:10.344Z,7.60
2023-12-29T10:44:38.941Z,8.97
2023-12-29T10:47:13.401Z,8.33
2023-12-29T10:49:42.565Z,8.13
2023-12-29T10:52:20.262Z,7.70
2023-12-29T10:54:47.545Z,7.37
2023-12-29T10:57:18.129Z,7.17
2023-12-29T11:00:08.185Z,7.43
2023-12-29T11:02:39.382Z,6.80
2023-12-29T11:05:13.914Z,7.27
2023-12-29T11:07:43.616Z,6.57
2023-12-29T11:10:12.518Z,6.70
2023-12-29T11:12:40.597Z,6.67
2023-12-29T11:15:10.037Z,6.47
2023-12-29T11:17:51.626Z,5.90
2023-12-29T11:20:21.666Z,5.70
2023-12-29T11:22:49.597Z,5.23
2023-12-29T11:25:19.610Z,5.40
2023-12-29T11:27:48.235Z,6.83
2023-12-29T11:30:16.628Z,8.20
2023-12-29T11:32:57.310Z,6.07
2023-12-29T11:36:23.809Z,6.27
2023-12-29T11:39:16.169Z,6.57
2023-12-29T11:42:11.732Z,5.93
2023-12-29T11:44:44.056Z,5.50
2023-12-29T11:47:59.756Z,5.93
2023-12-29T11:50:39.231Z,5.60
2023-12-29T11:53:07.125Z,5.83
2023-12-29T11:55:40.942Z,5.43
2023-12-29T11:58:30.355Z,5.87
2023-12-29T12:01:00.722Z,6.37
2023-12-29T12:03:33.536Z,13.17
2023-12-29T12:06:05.010Z,6.23
2023-12-29T12:08:39.343Z,5.80
2023-12-29T12:11:31.001Z,6.33
2023-12-29T12:13:59.282Z,6.30
2023-12-29T12:16:54.452Z,6.13
2023-12-29T12:19:26.575Z,5.90
2023-12-29T12:21:57.240Z,7.50
2023-12-29T12:24:27.316Z,6.95
2023-12-29T12:26:58.205Z,7.05
2023-12-29T12:29:27.026Z,6.90
2023-12-29T12:32:01.491Z,6.72
2023-12-29T12:34:39.903Z,6.90
2023-12-29T12:37:08.635Z,6.70
2023-12-29T12:42:27.281Z,6.47
2023-12-29T12:45:08.583Z,6.10
2023-12-29T12:47:46.953Z,6.40
2023-12-29T12:50:16.733Z,6.32
2023-12-29T12:52:50.043Z,5.28
2023-12-29T12:55:21.335Z,5.88
2023-12-29T12:57:48.989Z,5.57
2023-12-29T13:00:18.165Z,6.18
2023-12-29T13:02:48.278Z,6.43
2023-12-29T13:05:18.176Z,6.97
2023-12-29T13:07:45.946Z,6.72
2023-12-29T13:10:13.312Z,5.85
2023-12-29T13:12:41.861Z,5.55
2023-12-29T13:15:12.350Z,5.95
2023-12-29T13:17:40.573Z,5.55
2023-12-29T13:20:09.181Z,5.63
2023-12-29T13:22:36.444Z,7.15
2023-12-29T13:25:10.001Z,5.90
2023-12-29T13:27:41.592Z,5.60
2023-12-29T13:30:10.865Z,5.78
2023-12-29T13:32:41.022Z,5.32
2023-12-29T13:35:54.902Z,5.63
2023-12-29T13:38:36.469Z,6.35
2023-12-29T13:41:12.524Z,5.07
2023-12-29T13:43:45.201Z,5.32
2023-12-29T13:46:22.103Z,7.05
2023-12-29T13:48:55.531Z,7.10
2023-12-29T13:51:40.493Z,19.90
2023-12-29T13:54:07.906Z,20.25
2023-12-29T13:56:37.050Z,12.25
2023-12-29T13:59:08.861Z,14.90
2023-12-29T14:01:39.719Z,18.27
2023-12-29T14:04:21.105Z,17.50
2023-12-29T14:07:02.722Z,14.50
2023-12-29T14:09:30.913Z,14.60
2023-12-29T14:11:59.107Z,31.30
2023-12-29T14:14:30.133Z,25.65
2023-12-29T14:16:57.617Z,27.23
2023-12-29T14:19:28.037Z,26.63
2023-12-29T14:22:08.164Z,29.05
2023-12-29T14:25:00.948Z,35.33
2023-12-29T14:27:28.375Z,56.95
2023-12-29T14:29:55.535Z,46.50
2023-12-29T14:32:23.053Z,33.83
2023-12-29T14:34:56.550Z,29.17
2023-12-29T14:37:24.760Z,27.67
2023-12-29T14:39:52.788Z,24.97
2023-12-29T14:42:21.941Z,26.63
2023-12-29T14:44:50.137Z,26.13
2023-12-29T14:47:18.940Z,16.80
2023-12-29T14:49:46.876Z,21.40
2023-12-29T14:52:14.956Z,19.47
2023-12-29T14:54:42.591Z,16.13
2023-12-29T14:57:15.529Z,19.87
2023-12-29T14:59:47.185Z,14.43
2023-12-29T15:02:16.557Z,17.87
2023-12-29T15:04:44.529Z,46.53
2023-12-29T15:07:25.422Z,37.53
2023-12-29T15:09:53.530Z,39.10
2023-12-29T15:12:22.784Z,42.77
2023-12-29T15:14:53.882Z,41.30
2023-12-29T15:17:21.531Z,42.80
2023-12-29T15:19:49.765Z,38.93
2023-12-29T15:22:18.475Z,40.50
2023-12-29T15:24:53.083Z,55.90
2023-12-29T15:27:26.139Z,57.07
2023-12-29T15:30:01.604Z,52.23
2023-12-29T15:32:49.494Z,58.63
2023-12-29T15:35:21.694Z,79.60
2023-12-29T15:37:49.679Z,91.03
2023-12-29T15:40:19.950Z,101.33
2023-12-29T15:42:50.707Z,81.03
2023-12-29T15:45:22.405Z,79.47
2023-12-29T15:47:51.482Z,78.23
2023-12-29T15:50:28.699Z,87.70
2023-12-29T15:52:55.970Z,98.33
2023-12-29T15:55:23.577Z,105.20
2023-12-29T15:57:51.590Z,92.83
2023-12-29T16:00:22.333Z,99.80
2023-12-29T16:02:50.962Z,105.50
2023-12-29T16:05:22.977Z,93.97
2023-12-29T16:07:50.107Z,91.40
2023-12-29T16:10:17.395Z,83.40
2023-12-29T16:12:45.430Z,92.43
2023-12-29T16:15:13.017Z,88.43
2023-12-29T16:17:40.992Z,88.13
2023-12-29T16:20:14.925Z,77.77
2023-12-29T16:22:45.865Z,93.13
2023-12-29T16:25:15.577Z,101.73
2023-12-29T16:27:48.835Z,119.53
2023-12-29T16:30:17.751Z,103.73
2023-12-29T16:32:48.475Z,107.33
2023-12-29T16:35:19.661Z,104.40
2023-12-29T16:38:08.543Z,101.83
2023-12-29T16:40:59.660Z,134.83
2023-12-29T16:43:28.463Z,131.00
2023-12-29T16:45:56.420Z,118.67
2023-12-29T16:48:23.825Z,114.53
2023-12-29T16:50:54.292Z,91.03
2023-12-29T16:53:23.784Z,32.07
2023-12-29T16:55:51.908Z,22.43
2023-12-29T16:58:22.470Z,18.90
2023-12-29T17:00:54.181Z,18.03
2023-12-29T17:03:23.817Z,16.23
2023-12-29T17:05:51.050Z,16.60
2023-12-29T17:08:18.148Z,19.73
2023-12-29T17:10:47.188Z,29.70
2023-12-29T17:13:16.134Z,42.23
2023-12-29T17:15:43.604Z,42.23
2023-12-29T17:18:11.103Z,40.20
2023-12-29T17:20:38.315Z,38.57
2023-12-29T17:23:09.859Z,36.70
2023-12-29T17:25:46.334Z,32.40
2023-12-29T17:28:18.491Z,30.30
2023-12-29T17:30:48.062Z,25.80
2023-12-29T17:33:17.667Z,33.30
2023-12-29T17:35:45.623Z,29.77
2023-12-29T17:38:15.995Z,28.33
2023-12-29T17:40:44.143Z,22.47
2023-12-29T17:43:12.226Z,21.50
2023-12-29T17:45:42.110Z,23.80
2023-12-29T17:48:12.876Z,27.97
2023-12-29T17:50:42.502Z,28.40
2023-12-29T17:53:14.111Z,28.83
2023-12-29T17:55:47.969Z,33.60
2023-12-29T17:58:30.426Z,53.67
2023-12-29T18:01:01.995Z,52.40
2023-12-29T18:03:56.632Z,51.43
2023-12-29T18:06:29.346Z,49.77
2023-12-29T18:09:05.572Z,53.10
2023-12-29T18:11:53.242Z,66.77
2023-12-29T18:14:23.112Z,94.70
2023-12-29T18:16:53.919Z,85.73
2023-12-29T18:19:25.735Z,61.77
2023-12-29T18:21:57.812Z,62.30
2023-12-29T18:24:34.214Z,58.83
2023-12-29T18:27:05.008Z,60.67
2023-12-29T18:29:36.477Z,57.20
2023-12-29T18:32:25.548Z,54.03
2023-12-29T18:35:03.017Z,59.73
2023-12-29T18:37:37.857Z,60.83
2023-12-29T18:40:09.962Z,54.73
2023-12-29T18:42:38.812Z,60.23
2023-12-29T18:45:13.022Z,68.43
2023-12-29T18:47:55.992Z,59.17
2023-12-29T18:50:43.925Z,63.20
2023-12-29T18:53:14.237Z,70.17
2023-12-29T18:55:49.656Z,80.30
2023-12-29T18:58:23.061Z,83.77
2023-12-29T19:00:56.610Z,83.50
2023-12-29T19:03:27.725Z,80.10
2023-12-29T19:05:58.823Z,78.50
2023-12-29T19:08:29.524Z,109.83
2023-12-29T19:13:46.913Z,87.90
2023-12-29T19:16:29.586Z,73.10
2023-12-29T19:18:59.287Z,73.50
2023-12-29T19:21:33.922Z,89.77
2023-12-29T19:24:04.250Z,81.77
2023-12-29T19:26:37.682Z,67.40
2023-12-29T19:29:05.366Z,70.57
2023-12-29T19:31:33.608Z,74.53
2023-12-29T19:34:04.672Z,72.63
2023-12-29T19:36:33.899Z,72.93
2023-12-29T19:39:02.996Z,71.77
2023-12-29T19:41:43.684Z,67.63
2023-12-29T19:44:18.491Z,65.60
2023-12-29T19:47:34.825Z,76.50
2023-12-29T19:50:15.440Z,80.87
2023-12-29T19:52:47.299Z,86.83
2023-12-29T19:56:02.734Z,80.53
2023-12-29T19:58:39.800Z,59.90
2023-12-29T20:01:33.234Z,72.23
2023-12-29T20:04:08.962Z,58.20
2023-12-29T20:06:45.090Z,62.63
2023-12-29T20:09:36.378Z,61.33
2023-12-29T20:12:15.586Z,73.57
2023-12-29T20:14:45.860Z,63.40
2023-12-29T20:17:21.461Z,58.13
2023-12-29T20:20:02.684Z,52.07
2023-12-29T20:22:34.292Z,47.30
2023-12-29T20:25:09.203Z,44.17
2023-12-29T20:27:38.696Z,40.93
2023-12-29T20:30:07.716Z,41.27
2023-12-29T20:32:36.878Z,32.27
2023-12-29T20:35:07.345Z,29.97
2023-12-29T20:37:36.104Z,32.87
2023-12-29T20:40:10.599Z,34.87
2023-12-29T20:42:42.336Z,36.17
2023-12-29T20:45:12.469Z,21.53
2023-12-29T20:47:41.553Z,24.33
2023-12-29T20:50:10.713Z,25.53
2023-12-29T20:52:40.539Z,33.97
2023-12-29T20:55:10.062Z,38.37
2023-12-29T20:57:39.524Z,17.80
2023-12-29T21:00:09.407Z,28.50
2023-12-29T21:02:42.791Z,30.93
2023-12-29T21:05:13.738Z,29.07
2023-12-29T21:07:46.824Z,23.07
2023-12-29T21:10:36.028Z,22.10
2023-12-29T21:13:05.452Z,27.70
2023-12-29T21:15:36.825Z,29.97
2023-12-29T21:18:05.436Z,26.60
2023-12-29T21:20:38.246Z,22.17
2023-12-29T21:23:12.381Z,20.63
2023-12-29T21:25:48.888Z,22.03
2023-12-29T21:28:20.579Z,29.13
2023-12-29T21:30:54.194Z,34.97
2023-12-29T21:33:24.727Z,30.40
2023-12-29T21:35:54.831Z,28.70
2023-12-29T21:38:22.808Z,17.50
2023-12-29T21:40:52.680Z,16.43
2023-12-29T21:43:20.806Z,14.27
2023-12-29T21:45:51.705Z,13.97
2023-12-29T21:48:21.725Z,14.90
2023-12-29T21:50:52.806Z,15.00
2023-12-29T21:53:21.913Z,16.60
2023-12-29T21:55:53.191Z,58.20
2023-12-29T21:58:22.483Z,43.20
2023-12-29T22:00:57.992Z,29.97
2023-12-29T22:03:26.765Z,13.53
2023-12-29T22:06:00.729Z,15.00
2023-12-29T22:08:31.803Z,21.77
2023-12-29T22:11:00.938Z,23.47
2023-12-29T22:13:32.698Z,23.47
2023-12-29T22:16:22.402Z,23.27
2023-12-29T22:18:54.074Z,27.47
2023-12-29T22:21:32.043Z,27.13
2023-12-29T22:24:03.428Z,25.63
2023-12-29T22:26:32.324Z,24.93
2023-12-29T22:29:04.337Z,25.87
2023-12-29T22:31:35.667Z,23.50
2023-12-29T22:34:04.031Z,22.17
2023-12-29T22:36:35.328Z,26.63
2023-12-29T22:39:06.306Z,26.80
2023-12-29T22:41:38.669Z,26.43
2023-12-29T22:44:09.327Z,27.03
2023-12-29T22:46:43.997Z,29.90
2023-12-29T22:49:18.272Z,28.93
2023-12-29T22:51:48.600Z,21.07
2023-12-29T22:54:17.042Z,20.03
2023-12-29T22:56:44.628Z,19.70
2023-12-29T22:59:13.108Z,15.90
2023-12-29T23:01:41.394Z,16.20
2023-12-29T23:04:08.771Z,16.57
2023-12-29T23:06:36.770Z,16.77
2023-12-29T23:09:04.455Z,16.37
2023-12-29T23:11:31.783Z,16.07
2023-12-29T23:13:59.085Z,16.57
2023-12-29T23:16:26.489Z,16.37
2023-12-29T23:18:53.971Z,16.27
2023-12-29T23:21:21.245Z,16.63
2023-12-29T23:23:48.688Z,15.90
2023-12-29T23:26:16.325Z,16.27
2023-12-29T23:28:43.722Z,16.73
2023-12-29T23:31:12.222Z,18.53
2023-12-29T23:33:39.915Z,17.80
2023-12-29T23:36:07.802Z,19.47
2023-12-29T23:38:35.978Z,19.63
2023-12-29T23:41:03.236Z,20.73
2023-12-29T23:43:30.448Z,35.80
2023-12-29T23:45:57.805Z,38.43
2023-12-29T23:48:25.091Z,20.27
2023-12-29T23:50:52.333Z,15.57
2023-12-29T23:53:20.153Z,15.93
2023-12-29T23:55:47.313Z,18.50
2023-12-29T23:58:14.992Z,26.10
